Airfield :
LOGIN :

Register | Disclaimer

   EN    FR    IT 

 










Legend :    VFR   Marginal VFR   IFR   Intensive IFR   Very Intensive IFR
Visi :
Ceiling :
>= 8 km
>= 3000ft
5 to 8 km
1000 to 3000 ft
1500m to 5 km
500 to 1000 ft
800 to 1500m
200 to 500 ft
< 800m
< 200 ft
Symbols :   Thunderstorms  Fog  Heavy snow  Heavy precipitations  Wind > 20 kt
SIGMETs :     Misc.  Thunderstorms  Icing  Turbulence  Mountain Waves  Volcanic Ashes






- Airport Elevation : 1090 ft
- IATA code : CFE


LFLC - Clermont-Ferrand Auvergne

CURRENT METAR :
  • 151700Z AUTO 35009KT 9999 -RA BKN010 OVC015 02/M01 Q1025 TEMPO 2500 -SN

EXPIRED METARs :
  • 151630Z AUTO 35012KT 9999 BKN015 BKN020 OVC025 02/M01 Q1025 TEMPO 2500 -SN BKN008
  • 151600Z AUTO 35009KT 9999 BKN018 OVC026 02/M01 Q1025 TEMPO 2500 -SN BKN008
  • 151530Z AUTO 35009KT 9999 -RA BKN015 OVC022 02/M01 Q1024 TEMPO 2500 -SN BKN008
  • 151500Z AUTO 36011KT 9999 BKN017 OVC023 03/M01 Q1024 TEMPO 4000 -SN BKN013
  • 151430Z AUTO 36010KT 9999 BKN023 BKN028 OVC042 03/M02 Q1024 TEMPO 4000 -SN BKN013

TAF TAF LFLC
Valid from the 15 at 12:00 until the 16 at 12:00 UTC


151100Z 1512/1612 34012KT 9999 OVC020
PROB30
TEMPO 1512/1517 4000 -SN BKN013
PROB40
TEMPO 1517/1524 2500 -SN BKN008
FM160000 VRB03KT 8000 BKN012
PROB40 1600/1609 4000 BR BKN007
BECMG 1609/1611 CAVOK
ATIS : +33 4 73 62 74 38



MET'MAP, your aeronautical weather chart ! - Copyright ORBIFLY December 2007 - Disclaimer

ORBIFLY MET'MAP TEAM :

Programming & Development : Alexandra Zaïnal
Concept & original design : Baudouin d'Aumeries
Assistance for programming : Marc-Olivier Méhu
Technical & hardware support : Manuel Goepfert

Contact : metmap@orbifly.com




SOURCES & CREDITS :

   NOAA